createdAt,value
2018-06-15T00:00:26.292Z,20.25
2018-06-15T00:01:26.266Z,21.41
2018-06-15T00:02:26.236Z,19.38
2018-06-15T00:03:26.234Z,24.09
2018-06-15T00:04:26.184Z,21.98
2018-06-15T00:05:26.171Z,23.31
2018-06-15T00:06:26.134Z,20.24
2018-06-15T00:07:26.112Z,22.74
2018-06-15T00:08:26.095Z,19.67
2018-06-15T00:09:26.061Z,19.57
2018-06-15T00:10:26.043Z,24.46
2018-06-15T00:11:26.017Z,22.64
2018-06-15T00:12:25.989Z,21.30
2018-06-15T00:13:25.962Z,19.28
2018-06-15T00:14:25.939Z,17.65
2018-06-15T00:15:25.914Z,16.50
2018-06-15T00:16:25.888Z,21.97
2018-06-15T00:17:25.871Z,24.08
2018-06-15T00:18:25.840Z,27.53
2018-06-15T00:19:25.817Z,27.82
2018-06-15T00:20:25.802Z,24.85
2018-06-15T00:21:25.763Z,25.71
2018-06-15T00:22:25.746Z,25.99
2018-06-15T00:23:25.722Z,21.78
2018-06-15T00:24:25.692Z,22.64
2018-06-15T00:25:25.672Z,20.34
2018-06-15T00:26:25.639Z,18.24
2018-06-15T00:27:25.617Z,23.50
2018-06-15T00:28:25.605Z,23.03
2018-06-15T00:29:25.568Z,20.92
2018-06-15T00:30:25.538Z,19.20
2018-06-15T00:31:25.524Z,22.46
2018-06-15T00:32:25.498Z,23.60
2018-06-15T00:33:25.474Z,21.59
2018-06-15T00:34:25.442Z,23.41
2018-06-15T00:35:25.424Z,23.99
2018-06-15T00:36:25.392Z,24.19
2018-06-15T00:37:25.371Z,22.27
2018-06-15T00:38:25.346Z,20.92
2018-06-15T00:39:25.314Z,23.41
2018-06-15T00:40:25.302Z,24.94
2018-06-15T00:41:25.275Z,29.35
2018-06-15T00:42:25.262Z,25.23
2018-06-15T00:43:25.219Z,25.13
2018-06-15T00:44:25.196Z,28.20
2018-06-15T00:45:25.171Z,25.71
2018-06-15T00:46:25.147Z,25.53
2018-06-15T00:47:25.122Z,27.25
2018-06-15T00:48:25.099Z,23.32
2018-06-15T00:49:25.076Z,25.62
2018-06-15T00:50:25.063Z,23.79
2018-06-15T00:51:25.026Z,24.66
2018-06-15T00:52:25.000Z,29.27
2018-06-15T00:53:24.976Z,29.26
2018-06-15T00:54:24.948Z,27.72
2018-06-15T00:55:24.927Z,25.42
2018-06-15T00:56:24.896Z,27.34
2018-06-15T00:57:24.879Z,27.53
2018-06-15T00:58:24.849Z,25.13
2018-06-15T00:59:24.829Z,23.88
2018-06-15T01:00:24.799Z,27.34
2018-06-15T01:01:24.773Z,24.19
2018-06-15T01:02:24.751Z,28.03
2018-06-15T01:03:24.733Z,29.45
2018-06-15T01:04:24.700Z,31.18
2018-06-15T01:05:24.682Z,27.92
2018-06-15T01:06:24.650Z,28.78
2018-06-15T01:07:24.632Z,26.28
2018-06-15T01:08:24.598Z,27.53
2018-06-15T01:09:24.580Z,27.72
2018-06-15T01:10:24.546Z,29.45
2018-06-15T01:11:24.543Z,27.05
2018-06-15T01:12:24.505Z,28.49
2018-06-15T01:13:24.483Z,28.30
2018-06-15T01:14:24.460Z,26.86
2018-06-15T01:15:24.422Z,26.49
2018-06-15T01:16:24.420Z,27.34
2018-06-15T01:17:24.395Z,28.97
2018-06-15T01:18:24.350Z,29.06
2018-06-15T01:19:24.326Z,27.44
2018-06-15T01:20:24.305Z,27.15
2018-06-15T01:21:24.276Z,30.41
2018-06-15T01:22:24.254Z,30.22
2018-06-15T01:23:24.226Z,31.85
2018-06-15T01:24:24.207Z,30.51
2018-06-15T01:25:24.179Z,31.18
2018-06-15T01:26:24.159Z,30.41
2018-06-15T01:27:24.128Z,27.15
2018-06-15T01:28:24.101Z,28.30
2018-06-15T01:29:24.084Z,28.30
2018-06-15T01:30:24.054Z,29.64
2018-06-15T01:31:24.034Z,27.72
2018-06-15T01:32:24.001Z,26.57
2018-06-15T01:33:23.979Z,26.48
2018-06-15T01:34:23.959Z,25.05
2018-06-15T01:35:23.932Z,23.90
2018-06-15T01:36:23.913Z,23.90
2018-06-15T01:37:23.885Z,25.34
2018-06-15T01:38:23.856Z,25.92
2018-06-15T01:39:23.858Z,27.45
2018-06-15T01:40:23.802Z,25.05
2018-06-15T01:41:23.788Z,27.83
2018-06-15T01:42:23.759Z,28.79
2018-06-15T01:43:23.735Z,29.56
2018-06-15T01:44:23.712Z,29.27
2018-06-15T01:45:23.684Z,30.14
2018-06-15T01:46:23.657Z,29.35
2018-06-15T01:47:23.629Z,28.41
2018-06-15T01:48:23.623Z,28.41
2018-06-15T01:49:23.588Z,28.03
2018-06-15T01:50:23.557Z,27.64
2018-06-15T01:51:23.539Z,27.26
2018-06-15T01:52:23.504Z,27.36
2018-06-15T01:53:23.485Z,32.25
2018-06-15T01:54:23.472Z,32.25
2018-06-15T01:55:23.436Z,30.90
2018-06-15T01:56:23.415Z,30.81
2018-06-15T01:57:23.386Z,33.21
2018-06-15T01:58:23.360Z,32.52
2018-06-15T01:59:23.334Z,29.17
2018-06-15T02:00:23.313Z,28.89
2018-06-15T02:01:23.357Z,28.41
2018-06-15T02:02:23.258Z,28.31
2018-06-15T02:03:23.242Z,27.26
2018-06-15T02:04:23.210Z,24.86
2018-06-15T02:05:23.193Z,26.10
2018-06-15T02:06:23.165Z,29.17
2018-06-15T02:07:23.134Z,30.43
2018-06-15T02:08:23.118Z,27.45
2018-06-15T02:09:23.091Z,28.99
2018-06-15T02:10:23.065Z,29.37
2018-06-15T02:11:23.038Z,31.38
2018-06-15T02:12:23.012Z,34.75
2018-06-15T02:13:23.044Z,35.32
2018-06-15T02:14:22.992Z,35.21
2018-06-15T02:15:22.940Z,33.40
2018-06-15T02:16:22.926Z,33.50
2018-06-15T02:17:22.893Z,33.50
2018-06-15T02:18:22.870Z,31.96
2018-06-15T02:19:22.849Z,37.41
2018-06-15T02:20:22.816Z,37.89
2018-06-15T02:21:22.813Z,34.73
2018-06-15T02:22:22.765Z,33.50
2018-06-15T02:23:22.746Z,33.29
2018-06-15T02:24:22.720Z,32.34
2018-06-15T02:25:22.691Z,33.11
2018-06-15T02:26:22.672Z,31.96
2018-06-15T02:27:22.644Z,34.94
2018-06-15T02:28:22.615Z,31.48
2018-06-15T02:29:22.601Z,36.38
2018-06-15T02:30:22.568Z,35.11
2018-06-15T02:31:22.570Z,32.44
2018-06-15T02:32:22.523Z,32.04
2018-06-15T02:33:22.495Z,30.71
2018-06-15T02:34:22.472Z,30.90
2018-06-15T02:35:22.446Z,31.67
2018-06-15T02:36:22.427Z,30.14
2018-06-15T02:37:22.402Z,30.71
2018-06-15T02:38:22.367Z,30.23
2018-06-15T02:39:22.354Z,30.52
2018-06-15T02:40:22.323Z,32.25
2018-06-15T02:41:22.297Z,31.58
2018-06-15T02:42:22.277Z,31.48
2018-06-15T02:43:22.254Z,29.37
2018-06-15T02:44:22.226Z,29.56
2018-06-15T02:45:22.303Z,29.47
2018-06-15T02:46:22.171Z,30.33
2018-06-15T02:47:22.152Z,30.81
2018-06-15T02:48:22.131Z,31.38
2018-06-15T02:49:22.096Z,33.31
2018-06-15T02:50:22.072Z,35.32
2018-06-15T02:51:22.053Z,34.07
2018-06-15T02:52:22.024Z,33.78
2018-06-15T02:53:22.007Z,30.04
2018-06-15T02:54:21.981Z,30.14
2018-06-15T02:55:21.949Z,32.44
2018-06-15T02:56:21.932Z,35.13
2018-06-15T02:57:21.907Z,36.95
2018-06-15T02:58:21.898Z,36.07
2018-06-15T02:59:21.853Z,34.15
2018-06-15T03:00:21.833Z,34.75
2018-06-15T03:01:21.800Z,32.06
2018-06-15T03:02:21.790Z,33.11
2018-06-15T03:03:21.802Z,33.59
2018-06-15T03:04:21.733Z,30.41
2018-06-15T03:05:21.710Z,28.68
2018-06-15T03:06:21.679Z,29.26
2018-06-15T03:07:21.652Z,30.89
2018-06-15T03:08:21.634Z,32.92
2018-06-15T03:09:21.603Z,32.62
2018-06-15T03:10:21.583Z,33.11
2018-06-15T03:11:21.550Z,33.50
2018-06-15T03:12:21.535Z,30.52
2018-06-15T03:13:21.506Z,29.66
2018-06-15T03:14:21.479Z,29.37
2018-06-15T03:15:21.579Z,28.70
2018-06-15T03:16:21.432Z,27.64
2018-06-15T03:17:21.410Z,31.58
2018-06-15T03:18:21.377Z,33.88
2018-06-15T03:19:21.368Z,33.50
2018-06-15T03:20:21.337Z,36.76
2018-06-15T03:21:21.301Z,36.46
2018-06-15T03:22:21.294Z,36.55
2018-06-15T03:23:21.252Z,35.42
2018-06-15T03:24:21.235Z,33.86
2018-06-15T03:25:21.207Z,32.92
2018-06-15T03:26:21.179Z,33.69
2018-06-15T03:27:21.155Z,35.30
2018-06-15T03:28:21.135Z,35.40
2018-06-15T03:29:21.108Z,33.96
2018-06-15T03:30:21.096Z,32.23
2018-06-15T03:31:21.060Z,31.48
2018-06-15T03:32:21.032Z,31.96
2018-06-15T03:33:21.022Z,32.90
2018-06-15T03:34:20.986Z,33.58
2018-06-15T03:35:20.965Z,32.64
2018-06-15T03:36:20.938Z,31.96
2018-06-15T03:37:20.907Z,33.98
2018-06-15T03:38:20.881Z,37.43
2018-06-15T03:39:20.874Z,33.31
2018-06-15T03:40:20.836Z,33.88
2018-06-15T03:41:20.819Z,33.98
2018-06-15T03:42:20.780Z,35.13
2018-06-15T03:43:20.761Z,35.32
2018-06-15T03:44:20.734Z,34.36
2018-06-15T03:45:20.713Z,35.13
2018-06-15T03:46:20.688Z,37.05
2018-06-15T03:47:20.662Z,37.72
2018-06-15T03:48:20.639Z,35.71
2018-06-15T03:49:20.611Z,33.98
2018-06-15T03:50:20.585Z,38.29
2018-06-15T03:51:20.559Z,34.75
2018-06-15T03:52:20.537Z,32.82
2018-06-15T03:53:20.509Z,31.58
2018-06-15T03:54:20.495Z,31.77
2018-06-15T03:55:20.594Z,31.20
2018-06-15T03:56:20.536Z,29.17
2018-06-15T03:57:20.420Z,25.92
2018-06-15T03:58:20.398Z,26.49
2018-06-15T03:59:20.363Z,26.01
2018-06-15T04:00:20.343Z,25.82
2018-06-15T04:01:20.320Z,24.87
2018-06-15T04:02:20.288Z,25.05
2018-06-15T04:03:20.271Z,24.58
2018-06-15T04:04:20.244Z,24.09
2018-06-15T04:05:20.219Z,24.76
2018-06-15T04:06:20.193Z,23.91
2018-06-15T04:07:20.179Z,24.49
2018-06-15T04:08:20.148Z,26.50
2018-06-15T04:09:20.120Z,27.84
2018-06-15T04:10:20.099Z,28.81
2018-06-15T04:11:20.071Z,29.19
2018-06-15T04:12:20.042Z,28.04
2018-06-15T04:13:20.019Z,28.42
2018-06-15T04:14:20.000Z,27.27
2018-06-15T04:15:19.969Z,27.47
2018-06-15T04:16:19.947Z,27.56
2018-06-15T04:17:19.928Z,27.17
2018-06-15T04:18:19.905Z,25.73
2018-06-15T04:19:19.869Z,27.37
2018-06-15T04:20:19.848Z,26.98
2018-06-15T04:21:19.824Z,25.64
2018-06-15T04:22:19.804Z,25.45
2018-06-15T04:23:19.781Z,25.17
2018-06-15T04:24:19.746Z,25.83
2018-06-15T04:25:19.724Z,25.16
2018-06-15T04:26:19.699Z,27.37
2018-06-15T04:27:19.679Z,29.38
2018-06-15T04:28:19.656Z,28.04
2018-06-15T04:29:19.631Z,27.08
2018-06-15T04:30:19.598Z,27.19
2018-06-15T04:31:19.582Z,29.28
2018-06-15T04:32:19.556Z,28.82
2018-06-15T04:33:19.527Z,31.61
2018-06-15T04:34:19.507Z,34.95
2018-06-15T04:35:19.480Z,33.42
2018-06-15T04:36:19.458Z,31.59
2018-06-15T04:37:19.441Z,33.05
2018-06-15T04:38:19.408Z,33.34
2018-06-15T04:39:19.384Z,31.40
2018-06-15T04:40:19.355Z,35.64
2018-06-15T04:41:19.337Z,36.30
2018-06-15T04:42:19.306Z,33.34
2018-06-15T04:43:19.285Z,31.88
2018-06-15T04:44:19.264Z,30.36
2018-06-15T04:45:19.233Z,31.80
2018-06-15T04:46:19.215Z,31.80
2018-06-15T04:47:19.218Z,30.26
2018-06-15T04:48:19.158Z,30.55
2018-06-15T04:49:19.143Z,31.99
2018-06-15T04:50:19.131Z,34.39
2018-06-15T04:51:19.089Z,41.02
2018-06-15T04:52:19.062Z,40.45
2018-06-15T04:53:19.043Z,40.55
2018-06-15T04:54:19.017Z,40.16
2018-06-15T04:55:18.990Z,37.08
2018-06-15T04:56:19.017Z,36.80
2018-06-15T04:57:18.946Z,34.88
2018-06-15T04:58:18.917Z,33.15
2018-06-15T04:59:19.012Z,31.80
2018-06-15T05:00:18.873Z,29.49
2018-06-15T05:01:18.851Z,32.57
2018-06-15T05:02:18.817Z,33.15
2018-06-15T05:03:18.816Z,36.99
2018-06-15T05:04:18.779Z,37.08
2018-06-15T05:05:18.744Z,38.72
2018-06-15T05:06:18.733Z,42.76
2018-06-15T05:07:18.703Z,40.16
2018-06-15T05:08:18.677Z,37.27
2018-06-15T05:09:18.691Z,35.83
2018-06-15T05:10:18.620Z,36.51
2018-06-15T05:11:18.600Z,37.18
2018-06-15T05:12:18.607Z,36.80
2018-06-15T05:13:18.552Z,37.95
2018-06-15T05:14:18.528Z,35.26
2018-06-15T05:15:18.505Z,33.24
2018-06-15T05:16:18.478Z,35.45
2018-06-15T05:17:18.532Z,36.70
2018-06-15T05:18:18.455Z,36.22
2018-06-15T05:19:18.409Z,34.68
2018-06-15T05:20:18.391Z,34.30
2018-06-15T05:21:18.366Z,33.16
2018-06-15T05:22:18.330Z,42.76
2018-06-15T05:23:18.313Z,45.92
2018-06-15T05:24:18.290Z,41.70
2018-06-15T05:25:18.257Z,37.85
2018-06-15T05:26:18.242Z,36.53
2018-06-15T05:27:18.217Z,38.64
2018-06-15T05:28:18.191Z,40.28
2018-06-15T05:29:18.167Z,36.70
2018-06-15T05:30:18.166Z,36.80
2018-06-15T05:31:18.114Z,36.43
2018-06-15T05:32:18.093Z,33.74
2018-06-15T05:33:18.073Z,34.12
2018-06-15T05:34:18.037Z,33.64
2018-06-15T05:35:18.030Z,35.38
2018-06-15T05:36:18.010Z,33.54
2018-06-15T05:37:17.965Z,33.64
2018-06-15T05:38:17.951Z,31.83
2018-06-15T05:39:17.920Z,32.89
2018-06-15T05:40:17.899Z,33.47
2018-06-15T05:41:17.873Z,42.12
2018-06-15T05:42:17.852Z,39.72
2018-06-15T05:43:17.824Z,37.79
2018-06-15T05:44:17.800Z,36.18
2018-06-15T05:45:17.776Z,38.76
2018-06-15T05:46:17.753Z,38.56
2018-06-15T05:47:17.728Z,38.01
2018-06-15T05:48:17.708Z,41.86
2018-06-15T05:49:17.675Z,40.12
2018-06-15T05:50:17.660Z,39.24
2018-06-15T05:51:17.635Z,49.74
2018-06-15T05:52:17.605Z,55.40
2018-06-15T05:53:17.592Z,52.80
2018-06-15T05:54:17.555Z,61.55
2018-06-15T05:55:17.538Z,53.86
2018-06-15T05:56:17.518Z,60.11
2018-06-15T05:57:17.484Z,62.23
2018-06-15T05:58:17.477Z,57.51
2018-06-15T05:59:17.455Z,60.85
2018-06-15T06:00:17.412Z,56.62
2018-06-15T06:01:17.396Z,54.50
2018-06-15T06:02:17.366Z,50.49
2018-06-15T06:03:17.347Z,51.04
2018-06-15T06:04:17.343Z,49.63
2018-06-15T06:05:17.300Z,59.24
2018-06-15T06:06:17.267Z,52.32
2018-06-15T06:07:17.284Z,48.95
2018-06-15T06:08:17.230Z,48.28
2018-06-15T06:09:17.197Z,46.84
2018-06-15T06:10:17.182Z,49.24
2018-06-15T06:11:17.157Z,46.93
2018-06-15T06:12:17.125Z,47.61
2018-06-15T06:13:17.108Z,52.70
2018-06-15T06:14:17.076Z,53.19
2018-06-15T06:15:17.057Z,56.65
2018-06-15T06:16:17.030Z,52.99
2018-06-15T06:17:17.003Z,59.82
2018-06-15T06:18:16.984Z,51.35
2018-06-15T06:19:16.957Z,49.36
2018-06-15T06:20:16.941Z,47.92
2018-06-15T06:21:16.917Z,48.97
2018-06-15T06:22:16.887Z,45.32
2018-06-15T06:23:16.874Z,46.77
2018-06-15T06:24:16.838Z,50.71
2018-06-15T06:25:16.817Z,47.63
2018-06-15T06:26:16.794Z,44.55
2018-06-15T06:27:16.772Z,43.40
2018-06-15T06:28:16.749Z,41.66
2018-06-15T06:29:16.716Z,40.70
2018-06-15T06:30:16.700Z,49.17
2018-06-15T06:31:16.684Z,49.48
2018-06-15T06:32:16.657Z,47.44
2018-06-15T06:33:16.631Z,53.53
2018-06-15T06:34:16.603Z,55.07
2018-06-15T06:35:16.581Z,54.56
2018-06-15T06:36:16.552Z,51.12
2018-06-15T06:37:16.529Z,48.71
2018-06-15T06:38:16.508Z,47.17
2018-06-15T06:39:16.480Z,56.32
2018-06-15T06:40:16.466Z,54.78
2018-06-15T06:41:16.437Z,50.45
2018-06-15T06:42:16.408Z,46.98
2018-06-15T06:43:16.387Z,46.40
2018-06-15T06:44:16.375Z,54.00
2018-06-15T06:45:16.339Z,64.40
2018-06-15T06:46:16.317Z,69.79
2018-06-15T06:47:16.291Z,70.66
2018-06-15T06:48:16.270Z,64.21
2018-06-15T06:49:16.246Z,62.38
2018-06-15T06:50:16.230Z,58.05
2018-06-15T06:51:16.192Z,61.61
2018-06-15T06:52:16.179Z,57.40
2018-06-15T06:53:16.147Z,63.85
2018-06-15T06:54:16.135Z,64.63
2018-06-15T06:55:16.101Z,59.52
2018-06-15T06:56:16.081Z,58.65
2018-06-15T06:57:16.079Z,60.58
2018-06-15T06:58:16.026Z,59.81
2018-06-15T06:59:16.006Z,59.33
2018-06-15T07:00:15.994Z,57.12
2018-06-15T07:01:15.964Z,53.36
2018-06-15T07:02:15.977Z,52.11
2018-06-15T07:03:15.910Z,65.30
2018-06-15T07:04:15.884Z,71.08
2018-06-15T07:05:15.872Z,71.95
2018-06-15T07:06:15.897Z,75.71
2018-06-15T07:07:15.817Z,70.89
2018-06-15T07:08:15.797Z,63.18
2018-06-15T07:09:15.786Z,61.55
2018-06-15T07:10:15.745Z,69.45
2018-06-15T07:11:15.768Z,71.18
2018-06-15T07:12:15.737Z,80.71
2018-06-15T07:13:15.740Z,70.79
2018-06-15T07:14:15.664Z,70.15
2018-06-15T07:15:15.628Z,71.02
2018-06-15T07:16:15.622Z,74.78
2018-06-15T07:17:15.594Z,75.65
2018-06-15T07:18:15.560Z,69.77
2018-06-15T07:19:15.544Z,72.08
2018-06-15T07:20:15.511Z,69.77
2018-06-15T07:21:15.487Z,68.42
2018-06-15T07:22:15.462Z,72.27
2018-06-15T07:23:15.438Z,69.09
2018-06-15T07:24:15.425Z,66.78
2018-06-15T07:25:15.397Z,74.24
2018-06-15T07:26:15.372Z,71.25
2018-06-15T07:27:15.355Z,77.71
2018-06-15T07:28:15.332Z,72.99
2018-06-15T07:29:15.301Z,70.28
2018-06-15T07:30:15.308Z,65.85
2018-06-15T07:31:15.255Z,62.38
2018-06-15T07:32:15.230Z,75.30
2018-06-15T07:33:15.211Z,77.23
2018-06-15T07:34:15.189Z,76.36
2018-06-15T07:35:15.165Z,76.93
2018-06-15T07:36:15.135Z,78.96
2018-06-15T07:37:15.114Z,83.45
2018-06-15T07:38:15.093Z,79.21
2018-06-15T07:39:15.082Z,76.13
2018-06-15T07:40:15.046Z,79.21
2018-06-15T07:41:15.020Z,71.79
2018-06-15T07:42:14.997Z,76.42
2018-06-15T07:43:14.972Z,80.56
2018-06-15T07:44:14.956Z,79.02
2018-06-15T07:45:14.930Z,79.98
2018-06-15T07:46:14.903Z,79.79
2018-06-15T07:47:14.888Z,76.03
2018-06-15T07:48:14.859Z,76.90
2018-06-15T07:49:14.840Z,79.79
2018-06-15T07:50:14.807Z,76.80
2018-06-15T07:51:14.781Z,79.21
2018-06-15T07:52:14.761Z,78.40
2018-06-15T07:53:14.740Z,78.11
2018-06-15T07:54:14.714Z,82.45
2018-06-15T07:55:14.707Z,82.45
2018-06-15T07:56:14.671Z,83.99
2018-06-15T07:57:14.641Z,79.17
2018-06-15T07:58:14.627Z,81.39
2018-06-15T07:59:14.615Z,85.43
2018-06-15T08:00:14.577Z,78.11
2018-06-15T08:01:14.555Z,79.27
2018-06-15T08:02:14.522Z,78.02
2018-06-15T08:03:14.512Z,79.66
2018-06-15T08:04:14.483Z,80.71
2018-06-15T08:05:14.473Z,81.52
2018-06-15T08:06:14.437Z,79.02
2018-06-15T08:07:14.413Z,82.78
2018-06-15T08:08:14.386Z,78.83
2018-06-15T08:09:14.365Z,85.19
2018-06-15T08:10:14.385Z,82.01
2018-06-15T08:11:14.329Z,81.33
2018-06-15T08:12:14.285Z,80.46
2018-06-15T08:13:14.270Z,83.55
2018-06-15T08:14:14.244Z,78.73
2018-06-15T08:15:14.221Z,79.02
2018-06-15T08:16:14.200Z,83.16
2018-06-15T08:17:14.170Z,82.87
2018-06-15T08:18:14.153Z,82.49
2018-06-15T08:19:14.133Z,75.45
2018-06-15T08:20:14.099Z,83.36
2018-06-15T08:21:14.080Z,78.19
2018-06-15T08:22:14.049Z,78.58
2018-06-15T08:23:14.029Z,79.16
2018-06-15T08:24:14.013Z,87.64
2018-06-15T08:25:13.991Z,82.05
2018-06-15T08:26:13.962Z,84.94
2018-06-15T08:27:13.935Z,76.65
2018-06-15T08:28:13.921Z,85.23
2018-06-15T08:29:13.893Z,81.95
2018-06-15T08:30:13.869Z,86.87
2018-06-15T08:31:13.851Z,81.76
2018-06-15T08:32:13.818Z,83.98
2018-06-15T08:33:13.797Z,74.91
2018-06-15T08:34:13.777Z,75.97
2018-06-15T08:35:13.748Z,76.84
2018-06-15T08:36:13.733Z,76.45
2018-06-15T08:37:13.708Z,76.50
2018-06-15T08:38:13.691Z,79.77
2018-06-15T08:39:13.664Z,84.41
2018-06-15T08:40:13.878Z,77.55
2018-06-15T08:41:13.616Z,79.39
2018-06-15T08:42:13.596Z,82.76
2018-06-15T08:43:13.577Z,76.98
2018-06-15T08:44:13.542Z,87.59
2018-06-15T08:45:13.520Z,83.63
2018-06-15T08:46:13.502Z,79.49
2018-06-15T08:47:13.469Z,84.79
2018-06-15T08:48:13.453Z,83.73
2018-06-15T08:49:13.429Z,84.01
2018-06-15T08:50:13.404Z,82.57
2018-06-15T08:51:13.385Z,91.16
2018-06-15T08:52:13.353Z,83.73
2018-06-15T08:53:13.333Z,91.20
2018-06-15T08:54:13.308Z,85.13
2018-06-15T08:55:13.284Z,88.79
2018-06-15T08:56:13.264Z,90.63
2018-06-15T08:57:13.242Z,85.42
2018-06-15T08:58:13.218Z,84.36
2018-06-15T08:59:13.189Z,83.40
2018-06-15T09:00:13.177Z,83.88
2018-06-15T09:01:13.160Z,80.69
2018-06-15T09:02:13.126Z,83.74
2018-06-15T09:03:13.107Z,82.34
2018-06-15T09:04:13.077Z,84.90
2018-06-15T09:05:13.054Z,82.62
2018-06-15T09:06:13.033Z,81.66
2018-06-15T09:07:13.013Z,90.20
2018-06-15T09:08:12.985Z,84.32
2018-06-15T09:09:12.958Z,85.09
2018-06-15T09:10:12.953Z,89.81
2018-06-15T09:11:12.918Z,84.90
2018-06-15T09:12:12.889Z,84.12
2018-06-15T09:13:12.868Z,87.12
2018-06-15T09:14:12.842Z,87.21
2018-06-15T09:15:12.820Z,84.42
2018-06-15T09:16:12.842Z,82.49
2018-06-15T09:17:12.773Z,83.45
2018-06-15T09:18:12.824Z,89.33
2018-06-15T09:19:12.891Z,88.37
2018-06-15T09:20:12.701Z,90.39
2018-06-15T09:21:12.686Z,87.21
2018-06-15T09:22:12.654Z,91.74
2018-06-15T09:23:12.701Z,85.19
2018-06-15T09:24:12.605Z,88.46
2018-06-15T09:25:12.591Z,92.51
2018-06-15T09:26:12.559Z,91.06
2018-06-15T09:27:12.536Z,91.16
2018-06-15T09:28:12.514Z,89.23
2018-06-15T09:29:12.493Z,90.39
2018-06-15T09:30:12.466Z,92.80
2018-06-15T09:31:12.449Z,89.81
2018-06-15T09:32:12.420Z,90.10
2018-06-15T09:33:12.441Z,92.32
2018-06-15T09:34:12.377Z,88.37
2018-06-15T09:35:12.354Z,93.38
2018-06-15T09:36:12.333Z,88.37
2018-06-15T09:37:12.304Z,88.37
2018-06-15T09:38:12.280Z,89.81
2018-06-15T09:39:12.252Z,90.39
2018-06-15T09:40:12.236Z,90.00
2018-06-15T09:41:12.234Z,90.58
2018-06-15T09:42:12.266Z,88.56
2018-06-15T09:43:12.165Z,92.32
2018-06-15T09:44:12.139Z,92.08
2018-06-15T09:45:12.116Z,91.02
2018-06-15T09:46:12.098Z,91.11
2018-06-15T09:47:12.149Z,84.65
2018-06-15T09:48:12.053Z,89.86
2018-06-15T09:49:12.075Z,90.09
2018-06-15T09:50:12.011Z,90.87
2018-06-15T09:51:11.973Z,89.03
2018-06-15T09:52:11.951Z,88.93
2018-06-15T09:53:11.921Z,88.26
2018-06-15T09:54:11.957Z,87.68
2018-06-15T09:55:11.885Z,83.05
2018-06-15T09:56:11.852Z,87.68
2018-06-15T09:57:11.878Z,85.85
2018-06-15T09:58:11.840Z,84.21
2018-06-15T09:59:11.853Z,89.13
2018-06-15T10:00:11.759Z,83.58
2018-06-15T10:01:11.748Z,80.68
2018-06-15T10:02:11.721Z,88.02
2018-06-15T10:03:11.746Z,79.52
2018-06-15T10:04:11.751Z,79.62
2018-06-15T10:05:11.641Z,77.88
2018-06-15T10:06:11.707Z,87.73
2018-06-15T10:07:11.601Z,90.05
2018-06-15T10:08:11.571Z,89.75
2018-06-15T10:09:11.589Z,82.51
2018-06-15T10:10:11.583Z,83.14
2018-06-15T10:11:11.565Z,88.93
2018-06-15T10:12:11.497Z,90.77
2018-06-15T10:13:11.631Z,89.31
2018-06-15T10:14:11.441Z,87.58
2018-06-15T10:15:11.417Z,80.62
2018-06-15T10:16:11.385Z,84.39
2018-06-15T10:17:11.364Z,85.55
2018-06-15T10:18:11.337Z,81.49
2018-06-15T10:19:11.366Z,85.26
2018-06-15T10:20:11.297Z,88.64
2018-06-15T10:21:11.312Z,86.42
2018-06-15T10:22:11.346Z,88.06
2018-06-15T10:23:11.228Z,83.42
2018-06-15T10:24:11.209Z,81.88
2018-06-15T10:25:11.270Z,73.58
2018-06-15T10:26:11.163Z,84.20
2018-06-15T10:27:11.167Z,85.84
2018-06-15T10:28:11.117Z,81.01
2018-06-15T10:29:11.088Z,85.06
2018-06-15T10:30:11.068Z,84.10
2018-06-15T10:31:11.043Z,75.12
2018-06-15T10:32:11.022Z,85.69
2018-06-15T10:33:11.054Z,84.91
2018-06-15T10:34:10.975Z,85.30
2018-06-15T10:35:10.947Z,77.76
2018-06-15T10:36:10.957Z,76.61
2018-06-15T10:37:10.906Z,78.48
2018-06-15T10:38:10.934Z,83.61
2018-06-15T10:39:10.967Z,82.15
2018-06-15T10:40:10.885Z,82.93
2018-06-15T10:41:10.873Z,84.71
2018-06-15T10:42:10.820Z,86.83
2018-06-15T10:43:10.833Z,86.83
2018-06-15T10:44:10.748Z,88.39
2018-06-15T10:45:10.808Z,85.29
2018-06-15T10:46:10.723Z,84.71
2018-06-15T10:47:10.683Z,82.29
2018-06-15T10:48:10.694Z,73.30
2018-06-15T10:49:10.630Z,76.49
2018-06-15T10:50:10.630Z,77.71
2018-06-15T10:51:10.649Z,75.78
2018-06-15T10:52:10.588Z,74.04
2018-06-15T10:53:10.551Z,72.88
2018-06-15T10:54:10.582Z,73.16
2018-06-15T10:55:10.525Z,75.16
2018-06-15T10:56:10.522Z,73.13
2018-06-15T10:57:10.453Z,74.19
2018-06-15T10:58:10.471Z,82.31
2018-06-15T10:59:10.430Z,84.91
2018-06-15T11:00:10.390Z,75.74
2018-06-15T11:01:10.363Z,84.63
2018-06-15T11:02:10.341Z,82.89
2018-06-15T11:03:10.319Z,81.24
2018-06-15T11:04:10.302Z,80.28
2018-06-15T11:05:10.348Z,80.47
2018-06-15T11:06:10.253Z,72.74
2018-06-15T11:07:10.277Z,75.54
2018-06-15T11:08:10.194Z,81.24
2018-06-15T11:09:10.186Z,79.12
2018-06-15T11:10:10.156Z,73.71
2018-06-15T11:11:10.129Z,79.12
2018-06-15T11:12:10.109Z,71.00
2018-06-15T11:13:10.089Z,67.97
2018-06-15T11:14:10.058Z,74.77
2018-06-15T11:15:10.041Z,72.55
2018-06-15T11:16:10.013Z,67.62
2018-06-15T11:17:09.992Z,82.21
2018-06-15T11:18:09.976Z,81.15
2018-06-15T11:19:09.945Z,77.48
2018-06-15T11:20:09.921Z,80.47
2018-06-15T11:21:09.900Z,71.10
2018-06-15T11:22:09.877Z,69.17
2018-06-15T11:23:09.854Z,71.68
2018-06-15T11:24:09.833Z,74.81
2018-06-15T11:25:09.810Z,70.26
2018-06-15T11:26:09.791Z,71.33
2018-06-15T11:27:09.762Z,73.16
2018-06-15T11:28:09.738Z,73.55
2018-06-15T11:29:09.720Z,76.84
2018-06-15T11:30:09.699Z,76.64
2018-06-15T11:31:09.701Z,74.04
2018-06-15T11:32:09.657Z,79.16
2018-06-15T11:33:09.627Z,82.73
2018-06-15T11:34:09.603Z,79.83
2018-06-15T11:35:09.584Z,80.36
2018-06-15T11:36:09.558Z,68.24
2018-06-15T11:37:09.535Z,73.26
2018-06-15T11:38:09.510Z,75.48
2018-06-15T11:39:09.486Z,80.65
2018-06-15T11:40:09.475Z,81.04
2018-06-15T11:41:09.536Z,80.16
2018-06-15T11:42:09.424Z,85.52
2018-06-15T11:43:09.408Z,74.75
2018-06-15T11:44:09.370Z,74.85
2018-06-15T11:45:09.358Z,81.17
2018-06-15T11:46:09.327Z,76.62
2018-06-15T11:47:09.310Z,71.30
2018-06-15T11:48:09.289Z,69.75
2018-06-15T11:49:09.265Z,82.04
2018-06-15T11:50:09.237Z,77.30
2018-06-15T11:51:09.223Z,72.98
2018-06-15T11:52:09.191Z,76.76
2018-06-15T11:53:09.176Z,69.40
2018-06-15T11:54:09.152Z,71.62
2018-06-15T11:55:09.156Z,74.57
2018-06-15T11:56:09.105Z,70.11
2018-06-15T11:57:09.080Z,72.92
2018-06-15T11:58:09.061Z,71.86
2018-06-15T11:59:09.053Z,70.70
2018-06-15T12:00:09.024Z,74.38
2018-06-15T12:01:08.993Z,71.66
2018-06-15T12:02:08.973Z,65.08
2018-06-15T12:03:08.945Z,65.66
2018-06-15T12:04:08.929Z,68.56
2018-06-15T12:05:08.905Z,59.07
2018-06-15T12:06:08.886Z,63.14
2018-06-15T12:07:08.863Z,69.92
2018-06-15T12:08:08.840Z,69.15
2018-06-15T12:09:08.892Z,65.17
2018-06-15T12:10:08.797Z,68.56
2018-06-15T12:11:08.772Z,69.27
2018-06-15T12:12:08.753Z,69.47
2018-06-15T12:13:08.726Z,70.34
2018-06-15T12:14:08.707Z,68.02
2018-06-15T12:15:08.685Z,64.20
2018-06-15T12:16:08.656Z,65.11
2018-06-15T12:17:08.644Z,60.14
2018-06-15T12:18:08.611Z,63.53
2018-06-15T12:19:08.599Z,64.69
2018-06-15T12:20:08.579Z,62.69
2018-06-15T12:21:08.546Z,62.98
2018-06-15T12:22:08.533Z,65.69
2018-06-15T12:23:08.532Z,72.96
2018-06-15T12:24:08.479Z,66.27
2018-06-15T12:25:08.461Z,70.73
2018-06-15T12:26:08.437Z,71.89
2018-06-15T12:27:08.429Z,68.99
2018-06-15T12:28:08.393Z,65.30
2018-06-15T12:29:08.380Z,65.89
2018-06-15T12:30:08.350Z,68.89
2018-06-15T12:31:08.323Z,63.95
2018-06-15T12:32:08.320Z,60.94
2018-06-15T12:33:08.285Z,61.40
2018-06-15T12:34:08.285Z,60.52
2018-06-15T12:35:08.250Z,62.98
2018-06-15T12:36:08.218Z,62.40
2018-06-15T12:37:08.194Z,61.33
2018-06-15T12:38:08.173Z,62.88
2018-06-15T12:39:08.153Z,63.17
2018-06-15T12:40:08.127Z,64.43
2018-06-15T12:41:08.113Z,63.75
2018-06-15T12:42:08.082Z,71.22
2018-06-15T12:43:08.068Z,64.95
2018-06-15T12:44:08.045Z,65.43
2018-06-15T12:45:08.037Z,68.63
2018-06-15T12:46:08.022Z,65.82
2018-06-15T12:47:07.979Z,61.17
2018-06-15T12:48:07.955Z,61.94
2018-06-15T12:49:07.929Z,65.43
2018-06-15T12:50:07.919Z,64.95
2018-06-15T12:51:07.898Z,61.55
2018-06-15T12:52:07.865Z,57.39